sensor_id;sensor_type;location;lat;lon;timestamp;temperature;humidity
25352;DHT22;13304;48.464;8.712;2023-04-25T00:01:31;10.80;80.00
25352;DHT22;13304;48.464;8.712;2023-04-25T00:04:02;10.80;79.90
25352;DHT22;13304;48.464;8.712;2023-04-25T00:06:28;10.90;79.90
25352;DHT22;13304;48.464;8.712;2023-04-25T00:08:55;10.90;79.90
25352;DHT22;13304;48.464;8.712;2023-04-25T00:11:22;10.90;79.90
25352;DHT22;13304;48.464;8.712;2023-04-25T00:13:48;10.90;79.90
25352;DHT22;13304;48.464;8.712;2023-04-25T00:16:15;10.90;79.70
25352;DHT22;13304;48.464;8.712;2023-04-25T00:18:43;10.90;79.80
25352;DHT22;13304;48.464;8.712;2023-04-25T00:21:11;10.80;79.90
25352;DHT22;13304;48.464;8.712;2023-04-25T00:23:37;10.80;80.10
25352;DHT22;13304;48.464;8.712;2023-04-25T00:26:04;10.70;80.40
25352;DHT22;13304;48.464;8.712;2023-04-25T00:28:30;10.70;80.60
25352;DHT22;13304;48.464;8.712;2023-04-25T00:30:55;10.70;80.70
25352;DHT22;13304;48.464;8.712;2023-04-25T00:33:21;10.70;81.30
25352;DHT22;13304;48.464;8.712;2023-04-25T00:35:47;10.60;81.70
25352;DHT22;13304;48.464;8.712;2023-04-25T00:38:13;10.60;81.90
25352;DHT22;13304;48.464;8.712;2023-04-25T00:40:38;10.60;82.00
25352;DHT22;13304;48.464;8.712;2023-04-25T00:43:04;10.60;81.80
25352;DHT22;13304;48.464;8.712;2023-04-25T00:45:32;10.60;82.10
25352;DHT22;13304;48.464;8.712;2023-04-25T00:48:04;10.60;82.20
25352;DHT22;13304;48.464;8.712;2023-04-25T00:50:30;10.60;82.40
25352;DHT22;13304;48.464;8.712;2023-04-25T00:52:58;10.60;82.40
25352;DHT22;13304;48.464;8.712;2023-04-25T00:55:24;10.60;82.70
25352;DHT22;13304;48.464;8.712;2023-04-25T00:57:49;10.50;82.70
25352;DHT22;13304;48.464;8.712;2023-04-25T01:00:16;10.50;82.00
25352;DHT22;13304;48.464;8.712;2023-04-25T01:02:42;10.50;81.80
25352;DHT22;13304;48.464;8.712;2023-04-25T01:05:08;10.50;81.80
25352;DHT22;13304;48.464;8.712;2023-04-25T01:07:34;10.50;81.70
25352;DHT22;13304;48.464;8.712;2023-04-25T01:10:01;10.50;81.70
25352;DHT22;13304;48.464;8.712;2023-04-25T01:12:26;10.50;81.70
25352;DHT22;13304;48.464;8.712;2023-04-25T01:14:52;10.50;81.80
25352;DHT22;13304;48.464;8.712;2023-04-25T01:17:19;10.50;81.90
25352;DHT22;13304;48.464;8.712;2023-04-25T01:19:45;10.50;82.10
25352;DHT22;13304;48.464;8.712;2023-04-25T01:22:13;10.60;82.30
25352;DHT22;13304;48.464;8.712;2023-04-25T01:24:40;10.60;82.20
25352;DHT22;13304;48.464;8.712;2023-04-25T01:27:06;10.50;82.30
25352;DHT22;13304;48.464;8.712;2023-04-25T01:29:33;10.50;82.30
25352;DHT22;13304;48.464;8.712;2023-04-25T01:32:00;10.50;82.50
25352;DHT22;13304;48.464;8.712;2023-04-25T01:34:26;10.40;82.80
25352;DHT22;13304;48.464;8.712;2023-04-25T01:36:53;10.50;82.80
25352;DHT22;13304;48.464;8.712;2023-04-25T01:39:19;10.50;82.90
25352;DHT22;13304;48.464;8.712;2023-04-25T01:41:46;10.50;83.00
25352;DHT22;13304;48.464;8.712;2023-04-25T01:44:12;10.50;83.10
25352;DHT22;13304;48.464;8.712;2023-04-25T01:46:38;10.50;83.00
25352;DHT22;13304;48.464;8.712;2023-04-25T01:49:04;10.50;82.80
25352;DHT22;13304;48.464;8.712;2023-04-25T01:51:30;10.50;82.80
25352;DHT22;13304;48.464;8.712;2023-04-25T01:53:56;10.50;82.70
25352;DHT22;13304;48.464;8.712;2023-04-25T01:56:22;10.50;82.60
25352;DHT22;13304;48.464;8.712;2023-04-25T01:58:48;10.50;82.40
25352;DHT22;13304;48.464;8.712;2023-04-25T02:01:14;10.50;82.30
25352;DHT22;13304;48.464;8.712;2023-04-25T02:03:40;10.40;82.10
25352;DHT22;13304;48.464;8.712;2023-04-25T02:06:06;10.40;81.90
25352;DHT22;13304;48.464;8.712;2023-04-25T02:08:32;10.40;81.80
25352;DHT22;13304;48.464;8.712;2023-04-25T02:10:58;10.40;81.50
25352;DHT22;13304;48.464;8.712;2023-04-25T02:13:23;10.30;81.00
25352;DHT22;13304;48.464;8.712;2023-04-25T02:15:49;10.20;80.80
25352;DHT22;13304;48.464;8.712;2023-04-25T02:18:15;10.20;81.00
25352;DHT22;13304;48.464;8.712;2023-04-25T02:20:44;10.20;81.10
25352;DHT22;13304;48.464;8.712;2023-04-25T02:23:09;10.10;81.10
25352;DHT22;13304;48.464;8.712;2023-04-25T02:25:35;10.10;81.20
25352;DHT22;13304;48.464;8.712;2023-04-25T02:28:01;10.10;81.30
25352;DHT22;13304;48.464;8.712;2023-04-25T02:30:27;10.10;81.50
25352;DHT22;13304;48.464;8.712;2023-04-25T02:32:53;10.00;81.60
25352;DHT22;13304;48.464;8.712;2023-04-25T02:35:19;10.10;82.00
25352;DHT22;13304;48.464;8.712;2023-04-25T02:37:46;10.10;82.10
25352;DHT22;13304;48.464;8.712;2023-04-25T02:40:11;10.10;82.20
25352;DHT22;13304;48.464;8.712;2023-04-25T02:42:37;10.10;82.50
25352;DHT22;13304;48.464;8.712;2023-04-25T02:45:03;10.00;82.80
25352;DHT22;13304;48.464;8.712;2023-04-25T02:47:29;10.00;82.90
25352;DHT22;13304;48.464;8.712;2023-04-25T02:49:55;10.10;83.00
25352;DHT22;13304;48.464;8.712;2023-04-25T02:52:21;10.10;83.00
25352;DHT22;13304;48.464;8.712;2023-04-25T02:54:47;10.10;82.90
25352;DHT22;13304;48.464;8.712;2023-04-25T02:57:12;10.10;83.00
25352;DHT22;13304;48.464;8.712;2023-04-25T02:59:38;10.20;83.20
25352;DHT22;13304;48.464;8.712;2023-04-25T03:02:04;10.20;83.00
25352;DHT22;13304;48.464;8.712;2023-04-25T03:04:30;10.20;83.10
25352;DHT22;13304;48.464;8.712;2023-04-25T03:06:55;10.20;83.00
25352;DHT22;13304;48.464;8.712;2023-04-25T03:09:21;10.20;83.10
25352;DHT22;13304;48.464;8.712;2023-04-25T03:11:47;10.20;83.10
25352;DHT22;13304;48.464;8.712;2023-04-25T03:14:13;10.10;82.80
25352;DHT22;13304;48.464;8.712;2023-04-25T03:16:39;10.10;82.70
25352;DHT22;13304;48.464;8.712;2023-04-25T03:19:05;10.10;82.60
25352;DHT22;13304;48.464;8.712;2023-04-25T03:21:32;10.10;82.50
25352;DHT22;13304;48.464;8.712;2023-04-25T03:24:02;10.10;82.50
25352;DHT22;13304;48.464;8.712;2023-04-25T03:26:30;10.10;82.80
25352;DHT22;13304;48.464;8.712;2023-04-25T03:28:56;10.10;82.90
25352;DHT22;13304;48.464;8.712;2023-04-25T03:31:22;10.10;82.80
25352;DHT22;13304;48.464;8.712;2023-04-25T03:33:48;10.10;82.80
25352;DHT22;13304;48.464;8.712;2023-04-25T03:36:14;10.00;82.60
25352;DHT22;13304;48.464;8.712;2023-04-25T03:38:39;10.00;82.50
25352;DHT22;13304;48.464;8.712;2023-04-25T03:41:07;10.00;82.10
25352;DHT22;13304;48.464;8.712;2023-04-25T03:43:33;10.00;81.90
25352;DHT22;13304;48.464;8.712;2023-04-25T03:45:58;10.00;81.80
25352;DHT22;13304;48.464;8.712;2023-04-25T03:48:25;9.90;81.60
25352;DHT22;13304;48.464;8.712;2023-04-25T03:50:52;9.90;81.50
25352;DHT22;13304;48.464;8.712;2023-04-25T03:53:18;9.80;81.40
25352;DHT22;13304;48.464;8.712;2023-04-25T03:55:46;9.80;81.50
25352;DHT22;13304;48.464;8.712;2023-04-25T03:58:12;9.70;81.50
25352;DHT22;13304;48.464;8.712;2023-04-25T04:00:38;9.70;81.50
25352;DHT22;13304;48.464;8.712;2023-04-25T04:03:03;9.70;81.40
25352;DHT22;13304;48.464;8.712;2023-04-25T04:05:30;9.70;81.50
25352;DHT22;13304;48.464;8.712;2023-04-25T04:07:55;9.70;81.60
25352;DHT22;13304;48.464;8.712;2023-04-25T04:10:24;9.70;81.80
25352;DHT22;13304;48.464;8.712;2023-04-25T04:12:51;9.70;82.00
25352;DHT22;13304;48.464;8.712;2023-04-25T04:15:21;9.70;82.20
25352;DHT22;13304;48.464;8.712;2023-04-25T04:17:50;9.60;82.30
25352;DHT22;13304;48.464;8.712;2023-04-25T04:20:18;9.60;82.90
25352;DHT22;13304;48.464;8.712;2023-04-25T04:22:43;9.70;83.00
25352;DHT22;13304;48.464;8.712;2023-04-25T04:25:09;9.70;82.90
25352;DHT22;13304;48.464;8.712;2023-04-25T04:27:39;9.70;82.80
25352;DHT22;13304;48.464;8.712;2023-04-25T04:30:06;9.60;82.90
25352;DHT22;13304;48.464;8.712;2023-04-25T04:32:32;9.60;83.00
25352;DHT22;13304;48.464;8.712;2023-04-25T04:34:59;9.60;83.40
25352;DHT22;13304;48.464;8.712;2023-04-25T04:37:25;9.50;84.10
25352;DHT22;13304;48.464;8.712;2023-04-25T04:39:51;9.40;84.90
25352;DHT22;13304;48.464;8.712;2023-04-25T04:42:20;9.40;86.20
25352;DHT22;13304;48.464;8.712;2023-04-25T04:44:49;9.40;85.90
25352;DHT22;13304;48.464;8.712;2023-04-25T04:47:15;9.30;85.50
25352;DHT22;13304;48.464;8.712;2023-04-25T04:49:41;9.30;85.30
25352;DHT22;13304;48.464;8.712;2023-04-25T04:52:07;9.30;85.20
25352;DHT22;13304;48.464;8.712;2023-04-25T04:54:32;9.40;85.00
25352;DHT22;13304;48.464;8.712;2023-04-25T04:57:00;9.40;85.00
25352;DHT22;13304;48.464;8.712;2023-04-25T04:59:26;9.40;85.10
25352;DHT22;13304;48.464;8.712;2023-04-25T05:01:52;9.40;85.00
25352;DHT22;13304;48.464;8.712;2023-04-25T05:04:18;9.40;85.10
25352;DHT22;13304;48.464;8.712;2023-04-25T05:06:44;9.50;85.30
25352;DHT22;13304;48.464;8.712;2023-04-25T05:09:10;9.50;85.50
25352;DHT22;13304;48.464;8.712;2023-04-25T05:11:35;9.50;85.60
25352;DHT22;13304;48.464;8.712;2023-04-25T05:14:01;9.60;85.60
25352;DHT22;13304;48.464;8.712;2023-04-25T05:16:27;9.60;85.70
25352;DHT22;13304;48.464;8.712;2023-04-25T05:18:53;9.60;85.70
25352;DHT22;13304;48.464;8.712;2023-04-25T05:21:18;9.70;85.70
25352;DHT22;13304;48.464;8.712;2023-04-25T05:23:44;9.70;85.70
25352;DHT22;13304;48.464;8.712;2023-04-25T05:26:10;9.80;85.60
25352;DHT22;13304;48.464;8.712;2023-04-25T05:28:40;9.80;85.70
25352;DHT22;13304;48.464;8.712;2023-04-25T05:31:06;9.80;85.60
25352;DHT22;13304;48.464;8.712;2023-04-25T05:33:32;9.90;85.60
25352;DHT22;13304;48.464;8.712;2023-04-25T05:35:58;9.90;85.70
25352;DHT22;13304;48.464;8.712;2023-04-25T05:38:23;10.00;85.90
25352;DHT22;13304;48.464;8.712;2023-04-25T05:40:49;10.00;86.10
25352;DHT22;13304;48.464;8.712;2023-04-25T05:43:15;10.00;86.30
25352;DHT22;13304;48.464;8.712;2023-04-25T05:45:40;10.10;86.20
25352;DHT22;13304;48.464;8.712;2023-04-25T05:48:07;10.20;86.10
25352;DHT22;13304;48.464;8.712;2023-04-25T05:50:35;10.20;85.90
25352;DHT22;13304;48.464;8.712;2023-04-25T05:53:01;10.20;85.60
25352;DHT22;13304;48.464;8.712;2023-04-25T05:55:27;10.30;85.70
25352;DHT22;13304;48.464;8.712;2023-04-25T05:57:53;10.30;85.50
25352;DHT22;13304;48.464;8.712;2023-04-25T06:00:21;10.40;85.40
25352;DHT22;13304;48.464;8.712;2023-04-25T06:02:48;10.40;85.10
25352;DHT22;13304;48.464;8.712;2023-04-25T06:05:14;10.40;85.00
25352;DHT22;13304;48.464;8.712;2023-04-25T06:07:42;10.40;85.00
25352;DHT22;13304;48.464;8.712;2023-04-25T06:10:08;10.40;84.80
25352;DHT22;13304;48.464;8.712;2023-04-25T06:12:34;10.40;84.70
25352;DHT22;13304;48.464;8.712;2023-04-25T06:15:00;10.40;84.70
25352;DHT22;13304;48.464;8.712;2023-04-25T06:17:26;10.50;84.80
25352;DHT22;13304;48.464;8.712;2023-04-25T06:19:52;10.50;84.90
25352;DHT22;13304;48.464;8.712;2023-04-25T06:22:18;10.50;85.00
25352;DHT22;13304;48.464;8.712;2023-04-25T06:24:44;10.50;84.90
25352;DHT22;13304;48.464;8.712;2023-04-25T06:27:11;10.50;84.90
25352;DHT22;13304;48.464;8.712;2023-04-25T06:29:37;10.50;84.90
25352;DHT22;13304;48.464;8.712;2023-04-25T06:32:02;10.60;85.00
25352;DHT22;13304;48.464;8.712;2023-04-25T06:34:31;10.60;85.00
25352;DHT22;13304;48.464;8.712;2023-04-25T06:36:56;10.60;85.00
25352;DHT22;13304;48.464;8.712;2023-04-25T06:39:22;10.60;85.00
25352;DHT22;13304;48.464;8.712;2023-04-25T06:41:50;10.60;84.90
25352;DHT22;13304;48.464;8.712;2023-04-25T06:44:16;10.60;84.80
25352;DHT22;13304;48.464;8.712;2023-04-25T06:46:41;10.60;84.90
25352;DHT22;13304;48.464;8.712;2023-04-25T06:49:07;10.60;85.00
25352;DHT22;13304;48.464;8.712;2023-04-25T06:51:33;10.70;85.10
25352;DHT22;13304;48.464;8.712;2023-04-25T06:53:59;10.70;85.00
25352;DHT22;13304;48.464;8.712;2023-04-25T06:56:25;10.70;85.00
25352;DHT22;13304;48.464;8.712;2023-04-25T06:58:51;10.70;85.00
25352;DHT22;13304;48.464;8.712;2023-04-25T07:01:16;10.80;85.00
25352;DHT22;13304;48.464;8.712;2023-04-25T07:03:42;10.80;84.90
25352;DHT22;13304;48.464;8.712;2023-04-25T07:06:08;10.80;84.70
25352;DHT22;13304;48.464;8.712;2023-04-25T07:08:34;10.80;84.70
25352;DHT22;13304;48.464;8.712;2023-04-25T07:10:59;10.80;84.60
25352;DHT22;13304;48.464;8.712;2023-04-25T07:13:25;10.80;84.50
25352;DHT22;13304;48.464;8.712;2023-04-25T07:15:51;10.80;84.50
25352;DHT22;13304;48.464;8.712;2023-04-25T07:18:17;10.80;84.40
25352;DHT22;13304;48.464;8.712;2023-04-25T07:20:43;10.90;84.30
25352;DHT22;13304;48.464;8.712;2023-04-25T07:23:08;10.90;84.20
25352;DHT22;13304;48.464;8.712;2023-04-25T07:25:34;10.90;84.30
25352;DHT22;13304;48.464;8.712;2023-04-25T07:28:00;10.90;84.40
25352;DHT22;13304;48.464;8.712;2023-04-25T07:30:26;10.90;84.40
25352;DHT22;13304;48.464;8.712;2023-04-25T07:32:52;10.90;84.30
25352;DHT22;13304;48.464;8.712;2023-04-25T07:35:17;10.90;84.40
25352;DHT22;13304;48.464;8.712;2023-04-25T07:37:46;10.90;84.40
25352;DHT22;13304;48.464;8.712;2023-04-25T07:40:12;10.90;84.50
25352;DHT22;13304;48.464;8.712;2023-04-25T07:42:37;10.90;84.50
25352;DHT22;13304;48.464;8.712;2023-04-25T07:45:03;10.90;84.50
25352;DHT22;13304;48.464;8.712;2023-04-25T07:47:29;10.90;84.70
25352;DHT22;13304;48.464;8.712;2023-04-25T07:49:55;10.90;84.90
25352;DHT22;13304;48.464;8.712;2023-04-25T07:52:23;10.90;84.90
25352;DHT22;13304;48.464;8.712;2023-04-25T07:54:49;10.90;85.00
25352;DHT22;13304;48.464;8.712;2023-04-25T07:57:15;10.90;85.00
25352;DHT22;13304;48.464;8.712;2023-04-25T07:59:42;10.90;84.90
25352;DHT22;13304;48.464;8.712;2023-04-25T08:02:08;10.90;85.80
25352;DHT22;13304;48.464;8.712;2023-04-25T08:04:33;10.90;85.00
25352;DHT22;13304;48.464;8.712;2023-04-25T08:07:00;10.90;85.00
25352;DHT22;13304;48.464;8.712;2023-04-25T08:09:25;10.90;85.00
25352;DHT22;13304;48.464;8.712;2023-04-25T08:11:51;10.80;85.20
25352;DHT22;13304;48.464;8.712;2023-04-25T08:14:18;10.80;85.50
25352;DHT22;13304;48.464;8.712;2023-04-25T08:16:44;10.80;85.50
25352;DHT22;13304;48.464;8.712;2023-04-25T08:19:10;10.80;85.80
25352;DHT22;13304;48.464;8.712;2023-04-25T08:21:36;10.70;85.60
25352;DHT22;13304;48.464;8.712;2023-04-25T08:24:02;10.70;85.30
25352;DHT22;13304;48.464;8.712;2023-04-25T08:26:28;10.70;84.90
25352;DHT22;13304;48.464;8.712;2023-04-25T08:28:54;10.60;84.60
25352;DHT22;13304;48.464;8.712;2023-04-25T08:31:20;10.60;83.70
25352;DHT22;13304;48.464;8.712;2023-04-25T08:33:46;10.50;83.20
25352;DHT22;13304;48.464;8.712;2023-04-25T08:36:12;10.50;83.30
25352;DHT22;13304;48.464;8.712;2023-04-25T08:38:38;10.40;83.30
25352;DHT22;13304;48.464;8.712;2023-04-25T08:41:05;10.30;83.50
25352;DHT22;13304;48.464;8.712;2023-04-25T08:43:32;10.20;83.70
25352;DHT22;13304;48.464;8.712;2023-04-25T08:46:00;10.10;84.80
25352;DHT22;13304;48.464;8.712;2023-04-25T08:48:32;10.10;83.90
25352;DHT22;13304;48.464;8.712;2023-04-25T08:51:03;10.00;84.00
25352;DHT22;13304;48.464;8.712;2023-04-25T08:53:31;10.00;84.30
25352;DHT22;13304;48.464;8.712;2023-04-25T08:56:00;9.90;84.40
25352;DHT22;13304;48.464;8.712;2023-04-25T08:58:28;9.80;84.50
25352;DHT22;13304;48.464;8.712;2023-04-25T09:00:54;9.80;84.60
25352;DHT22;13304;48.464;8.712;2023-04-25T09:03:20;9.70;84.00
25352;DHT22;13304;48.464;8.712;2023-04-25T09:05:46;9.70;83.70
25352;DHT22;13304;48.464;8.712;2023-04-25T09:08:12;9.60;83.70
25352;DHT22;13304;48.464;8.712;2023-04-25T09:10:38;9.60;83.80
25352;DHT22;13304;48.464;8.712;2023-04-25T09:13:10;9.50;83.40
25352;DHT22;13304;48.464;8.712;2023-04-25T09:15:55;9.40;83.20
25352;DHT22;13304;48.464;8.712;2023-04-25T09:18:29;9.30;83.30
25352;DHT22;13304;48.464;8.712;2023-04-25T09:23:30;9.10;84.10
25352;DHT22;13304;48.464;8.712;2023-04-25T09:25:56;9.10;84.70
25352;DHT22;13304;48.464;8.712;2023-04-25T09:28:26;9.10;85.20
25352;DHT22;13304;48.464;8.712;2023-04-25T09:30:56;9.00;85.50
25352;DHT22;13304;48.464;8.712;2023-04-25T09:33:32;9.00;85.90
25352;DHT22;13304;48.464;8.712;2023-04-25T09:36:06;9.00;86.10
25352;DHT22;13304;48.464;8.712;2023-04-25T09:38:43;9.00;86.40
25352;DHT22;13304;48.464;8.712;2023-04-25T09:41:10;9.10;86.90
25352;DHT22;13304;48.464;8.712;2023-04-25T09:43:36;9.10;87.50
25352;DHT22;13304;48.464;8.712;2023-04-25T09:46:07;9.20;87.70
25352;DHT22;13304;48.464;8.712;2023-04-25T09:48:33;9.20;87.50
25352;DHT22;13304;48.464;8.712;2023-04-25T09:51:12;9.20;86.60
25352;DHT22;13304;48.464;8.712;2023-04-25T09:53:43;9.20;86.60
25352;DHT22;13304;48.464;8.712;2023-04-25T09:56:10;9.20;86.80
25352;DHT22;13304;48.464;8.712;2023-04-25T09:58:40;9.20;86.60
25352;DHT22;13304;48.464;8.712;2023-04-25T10:01:10;9.30;86.40
25352;DHT22;13304;48.464;8.712;2023-04-25T10:03:39;9.20;86.10
25352;DHT22;13304;48.464;8.712;2023-04-25T10:06:16;9.20;86.00
25352;DHT22;13304;48.464;8.712;2023-04-25T10:08:51;9.20;85.70
25352;DHT22;13304;48.464;8.712;2023-04-25T10:11:20;9.10;85.20
25352;DHT22;13304;48.464;8.712;2023-04-25T10:13:48;9.20;85.80
25352;DHT22;13304;48.464;8.712;2023-04-25T10:16:16;9.10;86.00
25352;DHT22;13304;48.464;8.712;2023-04-25T10:18:41;9.10;86.40
25352;DHT22;13304;48.464;8.712;2023-04-25T10:21:07;9.10;86.70
25352;DHT22;13304;48.464;8.712;2023-04-25T10:23:33;9.10;87.30
25352;DHT22;13304;48.464;8.712;2023-04-25T10:26:00;9.10;87.20
25352;DHT22;13304;48.464;8.712;2023-04-25T10:28:26;9.10;87.30
25352;DHT22;13304;48.464;8.712;2023-04-25T10:31:01;9.10;87.70
25352;DHT22;13304;48.464;8.712;2023-04-25T10:33:35;9.10;87.30
25352;DHT22;13304;48.464;8.712;2023-04-25T10:36:12;9.10;87.50
25352;DHT22;13304;48.464;8.712;2023-04-25T10:38:39;9.10;87.60
25352;DHT22;13304;48.464;8.712;2023-04-25T10:41:06;9.20;88.40
25352;DHT22;13304;48.464;8.712;2023-04-25T10:46:16;9.20;88.20
25352;DHT22;13304;48.464;8.712;2023-04-25T10:48:56;9.20;88.90
25352;DHT22;13304;48.464;8.712;2023-04-25T10:51:23;9.30;89.20
25352;DHT22;13304;48.464;8.712;2023-04-25T10:54:06;9.50;89.70
25352;DHT22;13304;48.464;8.712;2023-04-25T10:56:36;9.50;89.70
25352;DHT22;13304;48.464;8.712;2023-04-25T10:59:15;9.60;90.00
25352;DHT22;13304;48.464;8.712;2023-04-25T11:01:45;9.60;89.50
25352;DHT22;13304;48.464;8.712;2023-04-25T11:04:41;9.70;89.70
25352;DHT22;13304;48.464;8.712;2023-04-25T11:09:38;9.80;88.30
25352;DHT22;13304;48.464;8.712;2023-04-25T11:12:07;9.80;87.90
25352;DHT22;13304;48.464;8.712;2023-04-25T11:14:34;9.80;87.60
25352;DHT22;13304;48.464;8.712;2023-04-25T11:17:00;9.90;88.10
25352;DHT22;13304;48.464;8.712;2023-04-25T11:19:27;9.90;88.30
25352;DHT22;13304;48.464;8.712;2023-04-25T11:21:59;9.90;88.40
25352;DHT22;13304;48.464;8.712;2023-04-25T11:24:34;10.00;89.30
25352;DHT22;13304;48.464;8.712;2023-04-25T11:27:03;10.10;89.80
25352;DHT22;13304;48.464;8.712;2023-04-25T11:29:33;10.20;89.90
25352;DHT22;13304;48.464;8.712;2023-04-25T11:31:59;10.20;90.00
25352;DHT22;13304;48.464;8.712;2023-04-25T11:34:28;10.30;90.20
25352;DHT22;13304;48.464;8.712;2023-04-25T11:36:58;10.50;90.40
25352;DHT22;13304;48.464;8.712;2023-04-25T11:39:25;10.50;90.20
25352;DHT22;13304;48.464;8.712;2023-04-25T11:41:52;10.60;90.00
25352;DHT22;13304;48.464;8.712;2023-04-25T11:44:19;10.70;89.90
25352;DHT22;13304;48.464;8.712;2023-04-25T11:46:46;10.80;90.00
25352;DHT22;13304;48.464;8.712;2023-04-25T11:49:12;10.90;89.30
25352;DHT22;13304;48.464;8.712;2023-04-25T11:51:43;11.00;89.40
25352;DHT22;13304;48.464;8.712;2023-04-25T11:54:09;11.10;89.00
25352;DHT22;13304;48.464;8.712;2023-04-25T11:56:35;11.20;89.50
25352;DHT22;13304;48.464;8.712;2023-04-25T11:59:05;11.30;89.70
25352;DHT22;13304;48.464;8.712;2023-04-25T12:01:34;11.40;88.50
25352;DHT22;13304;48.464;8.712;2023-04-25T12:04:13;11.50;89.20
25352;DHT22;13304;48.464;8.712;2023-04-25T12:06:42;11.50;88.60
25352;DHT22;13304;48.464;8.712;2023-04-25T12:09:13;11.60;89.20
25352;DHT22;13304;48.464;8.712;2023-04-25T12:11:43;11.70;88.60
25352;DHT22;13304;48.464;8.712;2023-04-25T12:14:10;11.70;88.10
25352;DHT22;13304;48.464;8.712;2023-04-25T12:16:46;11.80;88.00
25352;DHT22;13304;48.464;8.712;2023-04-25T12:19:19;11.80;86.80
25352;DHT22;13304;48.464;8.712;2023-04-25T12:21:48;11.90;86.80
25352;DHT22;13304;48.464;8.712;2023-04-25T12:24:26;11.90;86.90
25352;DHT22;13304;48.464;8.712;2023-04-25T12:27:00;11.90;85.50
25352;DHT22;13304;48.464;8.712;2023-04-25T12:29:28;11.90;85.50
25352;DHT22;13304;48.464;8.712;2023-04-25T12:31:56;11.80;86.00
25352;DHT22;13304;48.464;8.712;2023-04-25T12:34:23;11.80;86.60
25352;DHT22;13304;48.464;8.712;2023-04-25T12:36:50;11.80;86.40
25352;DHT22;13304;48.464;8.712;2023-04-25T12:39:23;11.80;86.20
25352;DHT22;13304;48.464;8.712;2023-04-25T12:41:52;11.80;86.20
25352;DHT22;13304;48.464;8.712;2023-04-25T12:44:21;11.70;86.20
25352;DHT22;13304;48.464;8.712;2023-04-25T12:46:47;11.70;86.50
25352;DHT22;13304;48.464;8.712;2023-04-25T12:49:16;11.60;86.90
25352;DHT22;13304;48.464;8.712;2023-04-25T12:51:42;11.60;87.10
25352;DHT22;13304;48.464;8.712;2023-04-25T12:54:07;11.60;87.20
25352;DHT22;13304;48.464;8.712;2023-04-25T12:56:34;11.50;87.00
25352;DHT22;13304;48.464;8.712;2023-04-25T12:58:59;11.40;86.70
25352;DHT22;13304;48.464;8.712;2023-04-25T13:01:26;11.50;87.10
25352;DHT22;13304;48.464;8.712;2023-04-25T13:03:54;11.40;86.90
25352;DHT22;13304;48.464;8.712;2023-04-25T13:06:20;11.40;87.20
25352;DHT22;13304;48.464;8.712;2023-04-25T13:08:46;11.30;87.40
25352;DHT22;13304;48.464;8.712;2023-04-25T13:11:12;11.30;87.20
25352;DHT22;13304;48.464;8.712;2023-04-25T13:13:38;11.40;87.80
25352;DHT22;13304;48.464;8.712;2023-04-25T13:16:06;11.30;88.10
25352;DHT22;13304;48.464;8.712;2023-04-25T13:18:32;11.30;88.40
25352;DHT22;13304;48.464;8.712;2023-04-25T13:21:00;11.20;88.40
25352;DHT22;13304;48.464;8.712;2023-04-25T13:23:27;11.20;88.40
25352;DHT22;13304;48.464;8.712;2023-04-25T13:25:54;11.10;89.00
25352;DHT22;13304;48.464;8.712;2023-04-25T13:28:25;11.10;89.30
25352;DHT22;13304;48.464;8.712;2023-04-25T13:30:51;11.10;89.50
25352;DHT22;13304;48.464;8.712;2023-04-25T13:33:21;11.20;90.00
25352;DHT22;13304;48.464;8.712;2023-04-25T13:35:49;11.20;90.20
25352;DHT22;13304;48.464;8.712;2023-04-25T13:38:24;11.20;90.20
25352;DHT22;13304;48.464;8.712;2023-04-25T13:40:52;11.30;90.20
25352;DHT22;13304;48.464;8.712;2023-04-25T13:43:19;11.30;90.20
25352;DHT22;13304;48.464;8.712;2023-04-25T13:45:47;11.30;90.00
25352;DHT22;13304;48.464;8.712;2023-04-25T13:48:15;11.40;89.90
25352;DHT22;13304;48.464;8.712;2023-04-25T13:50:41;11.50;89.70
25352;DHT22;13304;48.464;8.712;2023-04-25T13:53:07;11.50;89.50
25352;DHT22;13304;48.464;8.712;2023-04-25T13:55:34;11.50;89.00
25352;DHT22;13304;48.464;8.712;2023-04-25T13:58:01;11.60;88.70
25352;DHT22;13304;48.464;8.712;2023-04-25T14:00:33;11.60;88.70
25352;DHT22;13304;48.464;8.712;2023-04-25T14:03:01;11.70;88.30
25352;DHT22;13304;48.464;8.712;2023-04-25T14:05:30;11.70;87.70
25352;DHT22;13304;48.464;8.712;2023-04-25T14:07:58;11.80;88.10
25352;DHT22;13304;48.464;8.712;2023-04-25T14:10:24;11.80;88.10
25352;DHT22;13304;48.464;8.712;2023-04-25T14:12:53;11.80;88.20
25352;DHT22;13304;48.464;8.712;2023-04-25T14:15:18;11.80;87.40
25352;DHT22;13304;48.464;8.712;2023-04-25T14:17:44;11.80;87.20
25352;DHT22;13304;48.464;8.712;2023-04-25T14:20:11;11.80;87.10
25352;DHT22;13304;48.464;8.712;2023-04-25T14:22:37;11.80;87.60
25352;DHT22;13304;48.464;8.712;2023-04-25T14:25:07;11.90;88.00
25352;DHT22;13304;48.464;8.712;2023-04-25T14:27:33;11.90;88.10
25352;DHT22;13304;48.464;8.712;2023-04-25T14:29:58;12.00;88.30
25352;DHT22;13304;48.464;8.712;2023-04-25T14:32:27;12.00;88.40
25352;DHT22;13304;48.464;8.712;2023-04-25T14:34:52;12.00;88.20
25352;DHT22;13304;48.464;8.712;2023-04-25T14:37:18;12.00;87.10
25352;DHT22;13304;48.464;8.712;2023-04-25T14:39:46;12.00;87.50
25352;DHT22;13304;48.464;8.712;2023-04-25T14:42:12;12.10;86.80
25352;DHT22;13304;48.464;8.712;2023-04-25T14:44:38;12.10;86.60
25352;DHT22;13304;48.464;8.712;2023-04-25T14:47:03;12.10;86.40
25352;DHT22;13304;48.464;8.712;2023-04-25T14:49:29;12.10;87.60
25352;DHT22;13304;48.464;8.712;2023-04-25T14:51:57;12.00;86.80
25352;DHT22;13304;48.464;8.712;2023-04-25T14:54:23;12.00;85.50
25352;DHT22;13304;48.464;8.712;2023-04-25T14:56:49;12.00;86.10
25352;DHT22;13304;48.464;8.712;2023-04-25T14:59:15;12.00;87.00
25352;DHT22;13304;48.464;8.712;2023-04-25T15:01:43;12.00;86.90
25352;DHT22;13304;48.464;8.712;2023-04-25T15:04:09;11.90;86.20
25352;DHT22;13304;48.464;8.712;2023-04-25T15:06:40;12.00;86.90
25352;DHT22;13304;48.464;8.712;2023-04-25T15:09:09;12.10;86.80
25352;DHT22;13304;48.464;8.712;2023-04-25T15:11:40;12.20;86.20
25352;DHT22;13304;48.464;8.712;2023-04-25T15:14:08;12.20;85.40
25352;DHT22;13304;48.464;8.712;2023-04-25T15:16:36;12.30;84.00
25352;DHT22;13304;48.464;8.712;2023-04-25T15:19:02;12.40;84.20
25352;DHT22;13304;48.464;8.712;2023-04-25T15:21:34;12.40;84.60
25352;DHT22;13304;48.464;8.712;2023-04-25T15:23:59;12.50;85.00
25352;DHT22;13304;48.464;8.712;2023-04-25T15:26:26;12.50;85.10
25352;DHT22;13304;48.464;8.712;2023-04-25T15:28:55;12.50;85.00
25352;DHT22;13304;48.464;8.712;2023-04-25T15:31:23;12.60;85.60
25352;DHT22;13304;48.464;8.712;2023-04-25T15:33:51;12.70;86.10
25352;DHT22;13304;48.464;8.712;2023-04-25T15:36:19;12.70;84.80
25352;DHT22;13304;48.464;8.712;2023-04-25T15:38:49;12.80;85.10
25352;DHT22;13304;48.464;8.712;2023-04-25T15:41:16;12.90;85.80
25352;DHT22;13304;48.464;8.712;2023-04-25T15:43:42;12.90;84.80